Time;durP1;ratioP1;P1;durP2;ratioP2;P2;SDS_P1;SDS_P2;PMS_P1;PMS_P2;Temp;Humidity;BMP_temperature;BMP_pressure;BME280_temperature;BME280_humidity;BME280_pressure;Samples;Min_cycle;Max_cycle;Signal;HPM_P1;HPM_P2
2024/04/25 00:00:17;;;;;;;4.32;2.03;;;;;;;8.11;53.24;98043.22;5416959;26;20393;-62
2024/04/25 00:02:44;;;;;;;4.85;1.77;;;;;;;8.07;53.46;98055.91;5417009;26;19991;-62
2024/04/25 00:05:11;;;;;;;4.95;2.03;;;;;;;8.00;53.50;98052.19;5417007;26;20447;-62
2024/04/25 00:07:38;;;;;;;6.53;2.38;;;;;;;7.96;53.84;98043.94;5416943;26;19995;-62
2024/04/25 00:10:04;;;;;;;3.03;1.73;;;;;;;7.97;53.97;98042.00;5416530;26;20338;-62
2024/04/25 00:12:31;;;;;;;4.78;1.58;;;;;;;8.01;53.74;98032.84;5416527;26;20336;-63
2024/04/25 00:14:58;;;;;;;3.97;1.90;;;;;;;7.97;53.68;98044.72;5416862;26;20321;-63
2024/04/25 00:17:24;;;;;;;7.18;2.28;;;;;;;7.92;53.79;98042.25;5416811;26;20347;-63
2024/04/25 00:19:51;;;;;;;3.50;1.90;;;;;;;7.88;54.37;98042.94;5416788;26;20417;-63
2024/04/25 00:22:18;;;;;;;6.90;2.35;;;;;;;7.83;54.48;98040.47;5416922;26;20337;-63
2024/04/25 00:24:44;;;;;;;4.13;1.90;;;;;;;7.86;54.70;98039.78;5415375;26;19999;-63
2024/04/25 00:27:12;;;;;;;5.78;2.30;;;;;;;7.89;54.54;98035.59;5416907;26;20006;-62
2024/04/25 00:29:38;;;;;;;5.00;2.65;;;;;;;7.88;54.46;98036.72;5416743;26;19999;-62
2024/04/25 00:32:05;;;;;;;3.88;2.03;;;;;;;7.85;54.93;98030.06;5415934;26;20005;-62
2024/04/25 00:34:32;;;;;;;8.93;2.40;;;;;;;7.83;55.20;98026.09;5414622;26;20012;-62
2024/04/25 00:36:59;;;;;;;5.53;2.38;;;;;;;7.83;55.23;98018.75;5443796;26;20402;-62
2024/04/25 00:39:25;;;;;;;4.10;2.67;;;;;;;7.87;55.08;98032.41;5416221;26;20456;-62
2024/04/25 00:41:52;;;;;;;3.33;2.10;;;;;;;7.92;55.09;98023.25;5415980;26;20011;-62
2024/04/25 00:44:19;;;;;;;5.32;2.20;;;;;;;7.93;54.91;98028.31;5416502;26;20010;-62
2024/04/25 00:46:48;;;;;;;3.15;2.30;;;;;;;7.92;55.14;98020.53;5414717;26;20068;-62
2024/04/25 00:49:16;;;;;;;4.30;2.20;;;;;;;7.92;55.19;98021.31;5415622;26;20007;-62
2024/04/25 00:51:43;;;;;;;5.72;2.67;;;;;;;7.94;55.10;98029.13;5416194;26;19996;-62
2024/04/25 00:54:10;;;;;;;4.78;2.53;;;;;;;7.94;55.18;98018.25;5416440;26;20010;-62
2024/04/25 00:56:38;;;;;;;7.55;2.70;;;;;;;7.92;55.33;98018.59;5444822;26;20000;-62
2024/04/25 00:59:06;;;;;;;4.20;3.05;;;;;;;7.82;55.33;98019.88;5416268;26;20010;-61
2024/04/25 01:01:35;;;;;;;8.95;3.92;;;;;;;7.73;55.64;98021.13;5415806;26;20413;-62
2024/04/25 01:04:03;;;;;;;6.28;3.13;;;;;;;7.68;56.12;98016.72;5416159;26;19999;-62
2024/04/25 01:06:33;;;;;;;9.02;3.42;;;;;;;7.74;56.09;98028.13;5444462;26;20717;-62
2024/04/25 01:09:00;;;;;;;7.15;2.88;;;;;;;7.76;55.96;98023.16;5415782;26;20008;-62
2024/04/25 01:11:28;;;;;;;9.07;3.45;;;;;;;7.68;55.78;98019.44;5431803;26;20456;-62
2024/04/25 01:13:56;;;;;;;7.18;3.78;;;;;;;7.64;56.21;98006.91;5416070;26;20011;-62
2024/04/25 01:16:22;;;;;;;6.10;3.30;;;;;;;7.63;56.62;98005.31;5414437;26;20055;-62
2024/04/25 01:18:49;;;;;;;4.93;3.05;;;;;;;7.63;56.38;98006.13;5474132;26;20014;-62
2024/04/25 01:21:16;;;;;;;4.38;3.00;;;;;;;7.68;56.32;98011.31;5415937;26;20002;-62
2024/04/25 01:23:45;;;;;;;6.38;3.38;;;;;;;7.72;56.38;98005.97;5416173;26;20003;-62
2024/04/25 01:26:12;;;;;;;7.45;3.58;;;;;;;7.66;56.57;98002.72;5415291;26;20000;-62
2024/04/25 01:28:41;;;;;;;6.43;3.10;;;;;;;7.61;56.80;98005.66;5415979;26;20023;-62
2024/04/25 01:31:09;;;;;;;7.78;3.83;;;;;;;7.59;56.28;98008.69;5415422;26;20460;-62
2024/04/25 01:33:37;;;;;;;4.95;3.33;;;;;;;7.54;56.95;97992.66;5415566;26;20000;-63
2024/04/25 01:36:04;;;;;;;9.20;3.65;;;;;;;7.55;57.37;97996.16;5415676;26;19999;-62
2024/04/25 01:38:31;;;;;;;8.18;4.18;;;;;;;7.64;56.67;97993.34;5415127;26;20004;-62
2024/04/25 01:40:58;;;;;;;7.72;3.75;;;;;;;7.67;57.02;97979.88;5428001;26;20003;-62
2024/04/25 01:43:25;;;;;;;7.03;3.70;;;;;;;7.68;56.85;97989.59;5415639;26;20011;-62
2024/04/25 01:45:51;;;;;;;8.90;3.53;;;;;;;7.64;56.74;97996.06;5414106;26;20006;-62
2024/04/25 01:48:18;;;;;;;6.03;3.65;;;;;;;7.54;57.08;97992.66;5415484;26;19999;-62
2024/04/25 01:50:45;;;;;;;7.88;3.70;;;;;;;7.60;57.31;97988.56;5415349;26;20009;-62
2024/04/25 01:53:11;;;;;;;7.20;4.28;;;;;;;7.62;57.10;97988.22;5415438;26;20068;-62
2024/04/25 01:55:38;;;;;;;10.18;4.13;;;;;;;7.58;56.79;97990.03;5415316;26;20006;-62
2024/04/25 01:58:05;;;;;;;7.47;3.97;;;;;;;7.51;57.15;97992.56;5415534;26;20011;-62
2024/04/25 02:00:32;;;;;;;12.50;3.80;;;;;;;7.58;57.23;97990.03;5415562;26;20003;-62
2024/04/25 02:02:59;;;;;;;6.40;3.53;;;;;;;7.62;57.27;97990.94;5416580;26;20452;-62
2024/04/25 02:05:25;;;;;;;9.82;4.00;;;;;;;7.59;57.27;97981.56;5447328;26;20000;-62
2024/04/25 02:07:54;;;;;;;9.55;3.53;;;;;;;7.65;57.20;97975.94;5418905;26;20004;-62
2024/04/25 02:10:21;;;;;;;7.65;3.72;;;;;;;7.67;57.27;97982.59;5417773;26;20007;-62
2024/04/25 02:12:47;;;;;;;9.45;3.58;;;;;;;7.71;57.04;97983.47;5418965;26;20358;-62
2024/04/25 02:15:15;;;;;;;10.30;3.97;;;;;;;7.73;56.96;97986.63;5418926;26;20011;-62
2024/04/25 02:17:42;;;;;;;9.23;4.15;;;;;;;7.69;56.65;97985.75;5387229;26;20028;-62
2024/04/25 02:25:41;;;;;;;8.60;3.97;;;;;;;7.57;57.06;97986.53;5418653;26;20000;-62
2024/04/25 02:28:08;;;;;;;9.40;4.05;;;;;;;7.62;57.25;97976.59;5418836;26;20004;-61
2024/04/25 02:30:34;;;;;;;10.38;4.25;;;;;;;7.61;57.04;97983.94;5416251;26;20595;-62
2024/04/25 02:33:01;;;;;;;6.05;3.90;;;;;;;7.59;57.07;97969.94;5418743;26;20010;-62
2024/04/25 02:35:28;;;;;;;13.05;4.38;;;;;;;7.61;57.17;97973.09;5416701;26;20367;-62
2024/04/25 02:37:54;;;;;;;8.73;4.20;;;;;;;7.61;57.12;97986.66;5418184;26;20045;-63
2024/04/25 02:40:21;;;;;;;7.80;3.75;;;;;;;7.59;56.84;97975.34;5417749;26;20358;-60
2024/04/25 02:42:48;;;;;;;7.93;3.97;;;;;;;7.54;56.88;97975.59;5416782;26;20459;-60
2024/04/25 02:45:14;;;;;;;11.63;4.28;;;;;;;7.56;57.21;97976.03;5418288;26;20002;-61
2024/04/25 02:47:41;;;;;;;10.60;4.63;;;;;;;7.63;57.23;97973.56;5418121;26;20031;-62
2024/04/25 02:50:10;;;;;;;6.80;3.83;;;;;;;7.66;57.10;97978.28;5416602;26;20396;-61
2024/04/25 02:52:38;;;;;;;6.28;4.13;;;;;;;7.75;57.25;97984.38;5416552;26;20015;-62
2024/04/25 02:55:05;;;;;;;7.82;4.53;;;;;;;7.76;56.90;97979.72;5418576;26;20072;-62
2024/04/25 02:57:32;;;;;;;10.73;4.63;;;;;;;7.78;57.29;97989.09;5418213;26;20417;-63
2024/04/25 02:59:58;;;;;;;10.30;4.15;;;;;;;7.81;57.27;97985.72;5418261;26;19999;-62
2024/04/25 03:02:26;;;;;;;9.45;4.75;;;;;;;7.83;56.89;97983.47;5418057;26;19999;-63
2024/04/25 03:04:53;;;;;;;8.05;4.32;;;;;;;7.86;56.92;97985.47;5418476;26;20724;-62
2024/04/25 03:07:20;;;;;;;10.02;4.53;;;;;;;7.88;57.01;97982.44;5446238;26;20493;-62
2024/04/25 03:09:47;;;;;;;6.30;4.47;;;;;;;7.95;56.88;97979.13;5417913;26;20340;-62
2024/04/25 03:12:13;;;;;;;10.40;3.97;;;;;;;7.92;56.62;97972.44;5430425;26;20004;-63
2024/04/25 03:14:40;;;;;;;10.27;4.50;;;;;;;7.84;56.82;97970.69;5418451;26;20007;-62
2024/04/25 03:17:07;;;;;;;11.18;4.65;;;;;;;7.79;56.94;97968.97;5418904;26;19999;-61
2024/04/25 03:19:35;;;;;;;10.52;4.63;;;;;;;7.77;57.26;97963.09;5432199;26;19996;-63
2024/04/25 03:22:02;;;;;;;8.65;4.32;;;;;;;7.76;56.73;97968.88;5423622;26;20439;-62
2024/04/25 03:24:29;;;;;;;8.77;4.60;;;;;;;7.77;57.19;97967.75;5424786;26;19995;-61
2024/04/25 03:26:56;;;;;;;10.43;5.20;;;;;;;7.78;56.87;97966.59;5422828;26;20003;-62
2024/04/25 03:29:22;;;;;;;8.25;4.60;;;;;;;7.79;57.28;97966.25;5418482;26;19999;-62
2024/04/25 03:31:50;;;;;;;11.02;5.13;;;;;;;7.81;56.97;97964.03;5420823;26;20401;-62
2024/04/25 03:34:17;;;;;;;8.70;4.72;;;;;;;7.80;57.30;97969.75;5422162;26;20044;-62
2024/04/25 03:36:44;;;;;;;7.90;4.57;;;;;;;7.79;57.23;97968.19;5422585;26;20008;-63
2024/04/25 03:39:12;;;;;;;10.50;5.35;;;;;;;7.80;57.38;97969.75;5420438;26;20068;-63
2024/04/25 03:41:40;;;;;;;10.48;4.90;;;;;;;7.78;57.34;97972.03;5420103;26;20041;-63
2024/04/25 03:44:07;;;;;;;10.77;5.40;;;;;;;7.74;57.39;97969.22;5422519;26;19999;-63
2024/04/25 03:46:33;;;;;;;13.68;5.28;;;;;;;7.70;57.63;97973.75;5420423;26;20002;-63
2024/04/25 03:49:00;;;;;;;10.85;5.18;;;;;;;7.69;57.86;97971.38;5424171;26;19996;-63
2024/04/25 03:51:27;;;;;;;14.02;5.45;;;;;;;7.71;57.66;97978.06;5427513;26;20003;-62
2024/04/25 03:53:53;;;;;;;10.18;5.38;;;;;;;7.74;57.65;97979.28;5420346;26;19999;-63
2024/04/25 03:56:20;;;;;;;8.88;5.40;;;;;;;7.71;57.59;97978.06;5422258;26;20444;-62
2024/04/25 03:58:47;;;;;;;12.07;5.22;;;;;;;7.72;57.66;97976.91;5422135;26;20012;-63
2024/04/25 04:01:14;;;;;;;8.05;4.55;;;;;;;7.78;57.76;97978.25;5423170;26;19999;-63
2024/04/25 04:03:40;;;;;;;12.75;5.53;;;;;;;7.84;57.82;97966.03;5423264;26;19999;-63
2024/04/25 04:06:07;;;;;;;12.45;5.35;;;;;;;7.92;57.44;97972.44;5433832;26;20011;-63
2024/04/25 04:08:35;;;;;;;9.43;5.32;;;;;;;7.91;57.85;97970.88;5428306;26;20439;-63
2024/04/25 04:11:03;;;;;;;7.88;4.78;;;;;;;7.95;57.68;97969.03;5426135;26;20023;-63
2024/04/25 04:13:31;;;;;;;11.38;6.05;;;;;;;7.97;57.15;97968.69;5425350;26;19995;-62
2024/04/25 04:15:58;;;;;;;10.60;5.32;;;;;;;7.98;57.19;97968.34;5421115;26;20027;-62
2024/04/25 04:18:25;;;;;;;14.77;6.38;;;;;;;7.96;57.20;97975.28;5417332;26;20011;-62
2024/04/25 04:20:52;;;;;;;10.40;5.72;;;;;;;7.96;57.12;97973.34;5414954;26;20041;-60
2024/04/25 04:23:18;;;;;;;13.20;5.55;;;;;;;8.00;57.14;97976.97;5445197;26;20008;-60
2024/04/25 04:25:45;;;;;;;13.90;5.63;;;;;;;8.03;57.22;97970.84;5414164;26;20015;-62
2024/04/25 04:28:12;;;;;;;8.32;5.78;;;;;;;8.01;57.15;97975.84;5415344;26;19995;-62
2024/04/25 04:30:41;;;;;;;11.05;5.80;;;;;;;8.02;57.17;97968.47;5417221;26;19996;-62
2024/04/25 04:33:08;;;;;;;7.93;5.60;;;;;;;8.02;57.36;97973.91;5418093;26;20000;-62
2024/04/25 04:35:35;;;;;;;12.90;5.95;;;;;;;8.02;57.14;97974.69;5415680;26;20000;-62
2024/04/25 04:38:02;;;;;;;12.80;6.38;;;;;;;8.04;57.24;97967.00;5418389;26;20045;-62
2024/04/25 04:40:29;;;;;;;12.02;6.53;;;;;;;8.10;57.28;97978.41;5417452;26;20072;-61
2024/04/25 04:42:55;;;;;;;14.75;6.43;;;;;;;8.10;57.03;97968.31;5417257;26;20006;-61
2024/04/25 04:45:22;;;;;;;16.70;6.18;;;;;;;8.08;57.23;97970.59;5418353;26;19999;-61
2024/04/25 04:47:49;;;;;;;10.23;5.95;;;;;;;8.11;56.85;97966.41;5418415;26;19995;-61
2024/04/25 04:50:19;;;;;;;10.20;6.28;;;;;;;8.11;57.01;97969.13;5416068;26;20003;-61
2024/04/25 04:52:46;;;;;;;9.15;6.22;;;;;;;8.10;57.01;97968.31;5444720;26;19999;-65
2024/04/25 04:55:13;;;;;;;13.82;6.13;;;;;;;8.10;57.24;97976.47;5416260;26;20000;-61
2024/04/25 04:57:40;;;;;;;9.50;6.45;;;;;;;8.14;56.77;97971.91;5385592;26;20000;-62
2024/04/25 05:00:07;;;;;;;17.77;7.57;;;;;;;8.15;56.98;97975.44;5416708;26;20448;-60
2024/04/25 05:02:34;;;;;;;13.65;8.18;;;;;;;8.21;57.15;97976.78;5416233;26;20007;-61
2024/04/25 05:05:01;;;;;;;12.55;6.28;;;;;;;8.22;56.92;97974.84;5416380;26;20287;-62
2024/04/25 05:07:27;;;;;;;14.90;6.00;;;;;;;8.19;56.88;97977.13;5416406;26;19995;-62
2024/04/25 05:09:54;;;;;;;11.43;5.43;;;;;;;8.22;56.97;97978.34;5414119;26;20358;-61
2024/04/25 05:12:21;;;;;;;10.25;5.95;;;;;;;8.24;56.79;97980.72;5416392;26;20000;-62
2024/04/25 05:14:48;;;;;;;13.43;6.45;;;;;;;8.24;56.96;97978.81;5415131;26;20012;-61
2024/04/25 05:17:14;;;;;;;17.67;6.50;;;;;;;8.26;56.86;97987.38;5416986;26;19995;-62
2024/04/25 05:19:41;;;;;;;9.90;5.90;;;;;;;8.24;57.19;97989.66;5416307;26;20263;-61
2024/04/25 05:22:08;;;;;;;10.07;5.35;;;;;;;8.26;56.90;97987.38;5416669;26;20467;-62
2024/04/25 05:24:35;;;;;;;14.30;6.03;;;;;;;8.33;56.80;97990.28;5417042;26;20027;-62
2024/04/25 05:27:02;;;;;;;10.15;5.50;;;;;;;8.38;56.49;97990.09;5416535;26;20008;-62
2024/04/25 05:29:28;;;;;;;10.80;5.25;;;;;;;8.38;56.12;97981.94;5415852;26;20325;-62
2024/04/25 05:31:59;;;;;;;16.25;6.07;;;;;;;8.37;56.58;97985.81;5415839;26;20370;-61
2024/04/25 05:34:26;;;;;;;13.10;5.47;;;;;;;8.37;56.38;97990.44;5416886;26;20003;-61
2024/04/25 05:36:52;;;;;;;11.38;5.45;;;;;;;8.34;56.41;97985.69;5416199;26;20023;-61
2024/04/25 05:39:19;;;;;;;11.65;5.63;;;;;;;8.38;56.71;97992.03;5444308;26;20003;-62
2024/04/25 05:41:46;;;;;;;10.60;5.10;;;;;;;8.36;56.52;97992.34;5415962;26;20000;-62
2024/04/25 05:44:13;;;;;;;10.00;6.00;;;;;;;8.30;56.12;97991.00;5416183;26;19999;-61
2024/04/25 05:46:39;;;;;;;16.08;6.25;;;;;;;8.27;56.47;97982.75;5415643;26;20069;-63
2024/04/25 05:49:06;;;;;;;11.23;5.82;;;;;;;8.36;56.60;97991.56;5415888;26;20050;-63
2024/04/25 05:51:33;;;;;;;10.02;6.35;;;;;;;8.39;56.32;97986.25;5415204;26;20071;-63
2024/04/25 05:54:00;;;;;;;9.05;5.65;;;;;;;8.36;56.32;97994.25;5415754;26;19999;-64
2024/04/25 05:56:26;;;;;;;11.00;5.95;;;;;;;8.39;56.29;97990.88;5415387;26;19999;-63
2024/04/25 05:58:56;;;;;;;12.02;5.72;;;;;;;8.42;56.23;97995.63;5413525;26;20049;-63
2024/04/25 06:01:23;;;;;;;12.10;6.45;;;;;;;8.56;56.20;97992.50;5415300;26;20000;-63
2024/04/25 06:03:50;;;;;;;9.95;6.03;;;;;;;8.62;55.94;97993.81;5413637;26;20010;-64
2024/04/25 06:06:17;;;;;;;20.10;6.80;;;;;;;8.60;55.81;98004.25;5413693;26;20012;-64
2024/04/25 06:08:44;;;;;;;12.50;6.22;;;;;;;8.53;55.65;98001.31;5420797;26;20008;-65
2024/04/25 06:11:10;;;;;;;10.52;5.82;;;;;;;8.46;55.97;97996.50;5413015;26;20003;-64
2024/04/25 06:13:38;;;;;;;9.80;5.45;;;;;;;8.48;55.84;98000.44;5415208;26;20003;-64
2024/04/25 06:16:05;;;;;;;11.55;6.20;;;;;;;8.54;55.65;98005.63;5415255;26;20041;-65
2024/04/25 06:18:32;;;;;;;8.10;5.60;;;;;;;8.55;56.02;97997.13;5415167;26;20031;-64
2024/04/25 06:20:59;;;;;;;12.05;6.05;;;;;;;8.65;55.68;97998.56;5414576;26;20006;-64
2024/04/25 06:23:26;;;;;;;13.73;7.63;;;;;;;8.77;55.46;97996.56;5414810;26;20345;-64
2024/04/25 06:25:53;;;;;;;10.85;6.90;;;;;;;8.85;55.46;98004.91;5412900;26;19996;-64
2024/04/25 06:28:19;;;;;;;9.23;6.07;;;;;;;8.85;54.87;98010.34;5473295;26;20124;-64
2024/04/25 06:30:46;;;;;;;15.15;6.45;;;;;;;8.89;55.19;98012.00;5472710;26;20023;-64
2024/04/25 06:33:13;;;;;;;13.25;6.10;;;;;;;8.84;54.93;98006.03;5415053;26;20138;-64
2024/04/25 06:35:40;;;;;;;11.80;5.95;;;;;;;8.82;54.69;98003.66;5415232;26;20068;-65
2024/04/25 06:38:09;;;;;;;9.50;5.13;;;;;;;8.86;55.33;98009.97;5413025;26;20076;-65
2024/04/25 06:40:35;;;;;;;14.65;6.63;;;;;;;8.95;54.65;98005.19;5441956;26;20010;-65
2024/04/25 06:43:02;;;;;;;15.43;6.15;;;;;;;9.03;54.62;98008.84;5442850;26;20004;-65
2024/04/25 06:45:29;;;;;;;12.27;5.75;;;;;;;9.01;54.12;98006.50;5413084;26;20000;-65
2024/04/25 06:47:55;;;;;;;10.23;6.00;;;;;;;8.90;54.07;98012.78;5416264;26;20003;-65
2024/04/25 06:50:23;;;;;;;10.77;6.45;;;;;;;8.82;54.16;98006.38;5418091;26;20045;-66
2024/04/25 06:52:49;;;;;;;13.18;6.63;;;;;;;8.78;54.06;98010.94;5419119;26;20004;-65
2024/04/25 06:55:16;;;;;;;10.55;5.75;;;;;;;8.77;54.23;97998.50;5419062;26;19995;-65
2024/04/25 06:57:43;;;;;;;12.73;6.10;;;;;;;8.90;54.35;98001.91;5418957;26;20085;-65
2024/04/25 07:00:11;;;;;;;6.68;5.13;;;;;;;8.95;54.01;98004.38;5418800;26;20333;-65
2024/04/25 07:02:40;;;;;;;11.52;6.43;;;;;;;8.92;54.03;98007.78;5418678;26;20003;-65
2024/04/25 07:05:09;;;;;;;12.50;6.97;;;;;;;8.90;53.82;98010.84;5418724;26;20374;-65
2024/04/25 07:07:36;;;;;;;13.27;6.13;;;;;;;8.89;54.26;98012.00;5418616;26;20008;-65
2024/04/25 07:10:04;;;;;;;11.25;6.88;;;;;;;8.91;53.78;98003.47;5418976;26;20000;-66
2024/04/25 07:12:32;;;;;;;14.35;6.63;;;;;;;8.82;53.78;98013.75;5417954;26;20000;-67
2024/04/25 07:15:01;;;;;;;12.57;6.80;;;;;;;8.82;53.54;98011.81;5418134;26;20006;-67
2024/04/25 07:17:27;;;;;;;13.38;6.43;;;;;;;8.71;53.63;98002.59;5417964;26;20003;-66
2024/04/25 07:19:55;;;;;;;11.65;6.68;;;;;;;8.65;54.00;98009.44;5416214;26;20002;-66
2024/04/25 07:22:21;;;;;;;9.02;6.22;;;;;;;8.73;54.08;98011.19;5417497;26;20032;-66
2024/04/25 07:24:48;;;;;;;10.73;6.45;;;;;;;8.88;53.94;98012.34;5417891;26;19996;-65
2024/04/25 07:27:15;;;;;;;11.50;6.32;;;;;;;8.97;53.52;98012.97;5417883;26;20040;-65
2024/04/25 07:29:46;;;;;;;10.23;6.60;;;;;;;8.85;53.26;98005.69;5417801;26;20453;-65
2024/04/25 07:32:15;;;;;;;13.70;6.95;;;;;;;8.79;53.12;98002.44;5417399;26;19995;-64
2024/04/25 07:34:45;;;;;;;12.68;7.00;;;;;;;8.91;53.22;98006.22;5418101;26;20003;-66
2024/04/25 07:37:11;;;;;;;13.70;6.82;;;;;;;9.10;53.03;98004.38;5446052;26;20072;-64
2024/04/25 07:39:38;;;;;;;16.42;7.32;;;;;;;9.24;52.40;98003.16;5417195;26;20007;-64
2024/04/25 07:42:05;;;;;;;13.30;7.40;;;;;;;9.32;52.20;98004.91;5417435;26;20013;-65
2024/04/25 07:44:31;;;;;;;12.75;8.05;;;;;;;9.39;51.89;98003.16;5418032;26;20010;-65
2024/04/25 07:46:58;;;;;;;15.55;7.47;;;;;;;9.48;52.12;98002.16;5416716;26;20016;-65
2024/04/25 07:49:25;;;;;;;12.10;8.25;;;;;;;9.57;51.68;98003.56;5418586;26;19999;-65
2024/04/25 07:51:52;;;;;;;13.43;7.78;;;;;;;9.58;51.76;98007.84;5420051;26;19999;-62
2024/04/25 07:54:19;;;;;;;12.23;7.05;;;;;;;9.61;51.92;98007.16;5420334;26;20000;-64
2024/04/25 07:56:46;;;;;;;15.85;7.53;;;;;;;9.55;51.42;97996.91;5419976;26;20006;-64
2024/04/25 07:59:13;;;;;;;16.58;7.45;;;;;;;9.59;51.45;97997.75;5414390;26;20456;-64
2024/04/25 08:01:40;;;;;;;13.48;7.30;;;;;;;9.65;51.29;98008.00;5416829;26;20347;-64
2024/04/25 08:04:07;;;;;;;10.85;6.60;;;;;;;9.64;50.64;98006.44;5415383;26;19996;-63
2024/04/25 08:06:34;;;;;;;13.27;6.32;;;;;;;9.52;50.62;97997.59;5417444;26;20000;-63
2024/04/25 08:09:01;;;;;;;17.85;7.30;;;;;;;9.45;50.75;98000.16;5421740;26;20399;-63
2024/04/25 08:11:28;;;;;;;15.13;6.50;;;;;;;9.43;50.56;98003.22;5416373;26;19996;-63
2024/04/25 08:13:55;;;;;;;11.60;5.88;;;;;;;9.36;50.26;98006.56;5417064;26;20015;-63
2024/04/25 08:16:26;;;;;;;14.05;5.93;;;;;;;9.32;50.65;98004.91;5415066;26;20068;-61
2024/04/25 08:18:54;;;;;;;11.98;5.78;;;;;;;9.34;50.25;97997.19;5416727;26;20407;-60
2024/04/25 08:21:22;;;;;;;11.43;5.00;;;;;;;9.28;50.69;98002.09;5416488;26;20331;-61
2024/04/25 08:23:48;;;;;;;9.65;5.50;;;;;;;9.30;50.24;98005.28;5415413;26;19999;-62
2024/04/25 08:26:15;;;;;;;8.60;4.75;;;;;;;9.32;50.29;98010.34;5417050;26;20344;-61
2024/04/25 08:28:42;;;;;;;41.92;21.92;;;;;;;9.41;50.57;98002.78;5417295;26;20040;-61
2024/04/25 08:31:09;;;;;;;35.47;19.25;;;;;;;9.55;50.21;98000.41;5416595;26;20007;-61
2024/04/25 08:33:36;;;;;;;9.55;5.80;;;;;;;9.84;50.19;98003.75;5415458;26;20413;-61
2024/04/25 08:36:04;;;;;;;10.20;4.90;;;;;;;10.14;48.91;97993.91;5416995;26;19995;-62
2024/04/25 08:38:33;;;;;;;9.55;4.43;;;;;;;10.50;48.04;97987.25;5416849;26;20007;-62
2024/04/25 08:41:00;;;;;;;11.30;5.35;;;;;;;10.74;48.13;97986.13;5416156;26;20024;-64
2024/04/25 08:43:27;;;;;;;9.02;4.00;;;;;;;10.95;46.77;97988.44;5444902;26;20014;-62
2024/04/25 08:45:54;;;;;;;10.55;4.10;;;;;;;10.95;46.66;97984.91;5416553;26;19996;-61
2024/04/25 08:48:23;;;;;;;9.40;4.50;;;;;;;10.85;46.21;97994.50;5417104;26;20003;-62
2024/04/25 08:50:53;;;;;;;9.50;4.13;;;;;;;10.81;46.87;97980.81;5416082;26;20341;-62
2024/04/25 08:53:21;;;;;;;12.02;5.15;;;;;;;10.92;46.76;97991.91;5416447;26;20003;-62
2024/04/25 08:55:49;;;;;;;14.32;4.82;;;;;;;10.91;46.91;97980.19;5416358;26;20137;-62
2024/04/25 08:58:16;;;;;;;5.95;3.90;;;;;;;10.93;46.91;97983.34;5416720;26;20038;-63
2024/04/25 09:00:43;;;;;;;10.40;3.85;;;;;;;10.96;46.40;97981.81;5416214;26;20386;-62
2024/04/25 09:03:13;;;;;;;5.57;3.03;;;;;;;11.07;46.50;97982.03;5444848;26;20006;-62
2024/04/25 09:05:40;;;;;;;7.10;3.30;;;;;;;11.22;45.86;97983.84;5416519;26;20010;-62
2024/04/25 09:08:10;;;;;;;11.55;3.88;;;;;;;11.39;45.35;97969.69;5416182;26;20004;-63
2024/04/25 09:10:40;;;;;;;8.68;3.53;;;;;;;11.49;44.30;97971.78;5414876;26;19999;-62
2024/04/25 09:13:07;;;;;;;8.60;4.20;;;;;;;11.50;43.74;97967.88;5416332;26;20010;-62
2024/04/25 09:15:34;;;;;;;7.60;3.55;;;;;;;11.40;43.05;97971.25;5416123;26;20011;-63
2024/04/25 09:18:02;;;;;;;7.03;3.95;;;;;;;11.23;44.10;97978.00;5416205;26;20007;-62
2024/04/25 09:20:30;;;;;;;5.22;3.38;;;;;;;11.15;44.98;97972.78;5416179;26;20003;-62
2024/04/25 09:22:57;;;;;;;12.43;3.30;;;;;;;11.09;45.29;97972.31;5414611;26;20357;-63
2024/04/25 09:25:27;;;;;;;9.90;3.65;;;;;;;11.07;45.64;97973.84;5415650;26;20008;-62
2024/04/25 09:27:56;;;;;;;7.30;3.45;;;;;;;10.96;46.38;97972.84;5414538;26;19996;-61
2024/04/25 09:30:24;;;;;;;6.38;3.42;;;;;;;10.93;46.14;97964.25;5413938;26;19999;-62
2024/04/25 09:32:51;;;;;;;5.82;3.03;;;;;;;11.00;45.66;97968.28;5444161;26;20010;-63
2024/04/25 09:35:18;;;;;;;6.55;3.15;;;;;;;11.08;45.43;97962.56;5444316;26;20075;-62
2024/04/25 09:37:45;;;;;;;5.20;3.13;;;;;;;11.20;45.44;97964.31;5415671;26;20490;-63
2024/04/25 09:40:11;;;;;;;7.10;3.50;;;;;;;11.22;45.64;97968.25;5415454;26;20008;-62
2024/04/25 09:42:39;;;;;;;10.73;3.70;;;;;;;11.18;45.33;97967.41;5443780;26;20463;-63
2024/04/25 09:45:09;;;;;;;8.13;3.22;;;;;;;11.17;45.36;97963.09;5415748;26;20003;-62
2024/04/25 09:47:42;;;;;;;5.20;3.17;;;;;;;11.34;44.54;97964.53;5415657;26;19995;-62
2024/04/25 09:50:16;;;;;;;6.25;3.50;;;;;;;11.79;44.35;97954.66;5414150;26;20073;-62
2024/04/25 09:52:56;;;;;;;7.28;3.35;;;;;;;12.34;44.42;97947.53;5415646;26;19999;-62
2024/04/25 09:55:34;;;;;;;7.28;3.88;;;;;;;12.61;42.59;97939.22;5415635;26;20003;-62
2024/04/25 09:58:04;;;;;;;9.05;3.65;;;;;;;12.80;41.96;97935.50;5414159;26;20007;-64
2024/04/25 10:00:33;;;;;;;8.38;3.40;;;;;;;12.84;42.20;97933.59;5413332;26;20003;-62
2024/04/25 10:03:00;;;;;;;8.93;3.75;;;;;;;12.77;42.01;97936.25;5415430;26;20013;-63
2024/04/25 10:05:28;;;;;;;8.43;3.58;;;;;;;12.65;41.91;97938.13;5415347;26;20010;-64
2024/04/25 10:07:55;;;;;;;12.90;3.63;;;;;;;12.68;40.95;97934.63;5415177;26;19999;-64
2024/04/25 10:10:22;;;;;;;7.10;3.08;;;;;;;12.77;41.27;97938.97;5442912;26;20094;-64
2024/04/25 10:12:53;;;;;;;7.13;3.38;;;;;;;12.78;41.31;97935.09;5415311;26;19999;-64
2024/04/25 10:15:27;;;;;;;8.38;3.95;;;;;;;12.92;40.89;97932.47;5415530;26;20002;-64
2024/04/25 10:17:55;;;;;;;5.32;3.05;;;;;;;13.14;39.13;97926.00;5415522;26;19996;-64
2024/04/25 10:20:22;;;;;;;4.63;2.42;;;;;;;13.26;38.95;97933.97;5414815;26;20019;-61
2024/04/25 10:22:57;;;;;;;6.85;2.50;;;;;;;13.29;38.10;97924.97;5416095;26;20032;-62
2024/04/25 10:25:24;;;;;;;2.85;1.30;;;;;;;12.90;36.41;97943.81;5418543;26;20072;-62
2024/04/25 10:28:02;;;;;;;2.08;0.82;;;;;;;12.48;37.60;97929.72;5418536;26;20473;-62
2024/04/25 10:30:32;;;;;;;2.05;1.33;;;;;;;12.25;38.58;97929.84;5418149;26;20015;-62
2024/04/25 10:33:00;;;;;;;1.85;1.70;;;;;;;12.19;38.87;97920.41;5446890;26;20057;-62
2024/04/25 10:35:37;;;;;;;3.92;1.60;;;;;;;11.95;40.47;97930.69;5418486;26;20070;-61
2024/04/25 10:38:05;;;;;;;3.50;2.38;;;;;;;11.82;39.89;97924.66;5418420;26;20014;-62
2024/04/25 10:40:31;;;;;;;2.78;2.40;;;;;;;11.76;41.05;97923.41;5417659;26;20015;-62
2024/04/25 10:42:59;;;;;;;4.18;2.60;;;;;;;11.87;41.61;97917.28;5418283;26;20018;-62
2024/04/25 10:45:31;;;;;;;5.20;3.55;;;;;;;11.99;41.79;97923.31;5418468;26;20356;-62
2024/04/25 10:47:59;;;;;;;4.88;3.10;;;;;;;12.16;42.01;97921.94;5418409;26;20011;-62
2024/04/25 10:50:26;;;;;;;3.95;2.33;;;;;;;12.23;41.92;97926.69;5417548;26;20007;-62
2024/04/25 10:52:55;;;;;;;4.13;1.90;;;;;;;12.23;41.57;97922.03;5418267;26;20344;-62
2024/04/25 10:55:23;;;;;;;5.07;1.75;;;;;;;12.29;42.28;97919.75;5418038;26;20003;-62
2024/04/25 10:57:50;;;;;;;8.20;2.35;;;;;;;12.38;41.88;97915.56;5417952;26;20007;-62
2024/04/25 11:00:17;;;;;;;5.55;2.38;;;;;;;12.57;41.78;97909.09;5417643;26;20072;-63
2024/04/25 11:02:43;;;;;;;3.55;2.85;;;;;;;12.73;42.06;97906.91;5416263;26;20064;-62
2024/04/25 11:05:10;;;;;;;4.28;1.85;;;;;;;12.99;40.63;97905.94;5418129;26;20015;-62
2024/04/25 11:07:38;;;;;;;5.50;1.63;;;;;;;13.15;40.21;97891.22;5417905;26;20006;-62
2024/04/25 11:10:08;;;;;;;6.68;1.83;;;;;;;13.49;40.41;97891.84;5417695;26;20078;-62
2024/04/25 11:12:36;;;;;;;2.40;1.27;;;;;;;13.97;38.86;97886.22;5417643;26;20415;-63
2024/04/25 11:15:16;;;;;;;3.35;1.33;;;;;;;14.32;38.43;97878.09;5446286;26;20334;-62
2024/04/25 11:17:44;;;;;;;2.00;1.35;;;;;;;14.50;38.23;97873.47;5446153;26;20044;-62
2024/04/25 11:20:31;;;;;;;4.95;1.88;;;;;;;14.29;38.75;97889.03;5417651;26;20010;-63
2024/04/25 11:23:11;;;;;;;4.00;1.58;;;;;;;14.31;38.54;97886.69;5418175;26;19996;-62
2024/04/25 11:25:39;;;;;;;5.50;1.85;;;;;;;14.21;38.02;97880.03;5417784;26;20012;-63
2024/04/25 11:28:08;;;;;;;5.57;2.20;;;;;;;14.08;37.94;97878.81;5446068;26;20340;-62
2024/04/25 11:30:35;;;;;;;4.15;1.70;;;;;;;13.82;38.46;97883.41;5445786;26;20003;-62
2024/04/25 11:33:04;;;;;;;4.00;2.00;;;;;;;13.63;39.03;97875.50;5417612;26;20011;-62
2024/04/25 11:35:31;;;;;;;3.17;1.52;;;;;;;13.34;39.10;97871.81;5415883;26;20000;-62
2024/04/25 11:37:57;;;;;;;7.32;1.80;;;;;;;13.13;39.06;97883.38;5418084;26;20000;-63
2024/04/25 11:40:34;;;;;;;5.07;1.40;;;;;;;13.12;38.86;97884.53;5417134;26;19995;-62
2024/04/25 11:43:01;;;;;;;1.88;0.95;;;;;;;13.21;38.21;97893.25;5417833;26;19995;-63